sensor_id;sensor_type;location;lat;lon;timestamp;P1;durP1;ratioP1;P2;durP2;ratioP2
72904;SDS011;61048;52.162;4.516;2022-08-19T00:01:31;3.22;;;1.88;;
72904;SDS011;61048;52.162;4.516;2022-08-19T00:03:59;5.07;;;1.65;;
72904;SDS011;61048;52.162;4.516;2022-08-19T00:06:28;5.20;;;1.80;;
72904;SDS011;61048;52.162;4.516;2022-08-19T00:08:56;4.07;;;2.20;;
72904;SDS011;61048;52.162;4.516;2022-08-19T00:11:25;4.32;;;1.75;;
72904;SDS011;61048;52.162;4.516;2022-08-19T00:13:54;3.83;;;1.60;;
72904;SDS011;61048;52.162;4.516;2022-08-19T00:16:22;5.45;;;2.50;;
72904;SDS011;61048;52.162;4.516;2022-08-19T00:18:50;3.00;;;1.50;;
72904;SDS011;61048;52.162;4.516;2022-08-19T00:21:18;3.50;;;1.60;;
72904;SDS011;61048;52.162;4.516;2022-08-19T00:23:45;4.18;;;1.83;;
72904;SDS011;61048;52.162;4.516;2022-08-19T00:26:11;4.63;;;1.60;;
72904;SDS011;61048;52.162;4.516;2022-08-19T00:28:38;3.67;;;2.70;;
72904;SDS011;61048;52.162;4.516;2022-08-19T00:31:08;3.20;;;1.75;;
72904;SDS011;61048;52.162;4.516;2022-08-19T00:33:36;3.83;;;2.47;;
72904;SDS011;61048;52.162;4.516;2022-08-19T00:36:03;8.80;;;2.47;;
72904;SDS011;61048;52.162;4.516;2022-08-19T00:38:33;3.30;;;1.40;;
72904;SDS011;61048;52.162;4.516;2022-08-19T00:41:00;4.90;;;2.30;;
72904;SDS011;61048;52.162;4.516;2022-08-19T00:43:27;4.13;;;2.22;;
72904;SDS011;61048;52.162;4.516;2022-08-19T00:45:54;4.10;;;2.42;;
72904;SDS011;61048;52.162;4.516;2022-08-19T00:48:22;4.07;;;2.42;;
72904;SDS011;61048;52.162;4.516;2022-08-19T00:50:50;4.68;;;1.65;;
72904;SDS011;61048;52.162;4.516;2022-08-19T00:53:18;4.57;;;3.00;;
72904;SDS011;61048;52.162;4.516;2022-08-19T00:55:49;5.72;;;2.70;;
72904;SDS011;61048;52.162;4.516;2022-08-19T00:58:19;3.75;;;2.00;;
72904;SDS011;61048;52.162;4.516;2022-08-19T01:00:48;5.00;;;1.60;;
72904;SDS011;61048;52.162;4.516;2022-08-19T01:03:16;3.10;;;1.40;;
72904;SDS011;61048;52.162;4.516;2022-08-19T01:05:46;4.30;;;1.35;;
72904;SDS011;61048;52.162;4.516;2022-08-19T01:08:15;4.93;;;1.50;;
72904;SDS011;61048;52.162;4.516;2022-08-19T01:10:45;3.10;;;1.60;;
72904;SDS011;61048;52.162;4.516;2022-08-19T01:13:15;3.65;;;1.58;;
72904;SDS011;61048;52.162;4.516;2022-08-19T01:15:44;4.07;;;1.60;;
72904;SDS011;61048;52.162;4.516;2022-08-19T01:18:14;3.92;;;1.48;;
72904;SDS011;61048;52.162;4.516;2022-08-19T01:20:43;2.60;;;1.40;;
72904;SDS011;61048;52.162;4.516;2022-08-19T01:23:14;2.03;;;1.20;;
72904;SDS011;61048;52.162;4.516;2022-08-19T01:25:44;4.00;;;1.50;;
72904;SDS011;61048;52.162;4.516;2022-08-19T01:28:18;3.40;;;1.40;;
72904;SDS011;61048;52.162;4.516;2022-08-19T01:30:46;4.20;;;1.33;;
72904;SDS011;61048;52.162;4.516;2022-08-19T01:33:14;4.35;;;2.40;;
72904;SDS011;61048;52.162;4.516;2022-08-19T01:35:42;3.28;;;1.30;;
72904;SDS011;61048;52.162;4.516;2022-08-19T01:38:10;3.70;;;1.42;;
72904;SDS011;61048;52.162;4.516;2022-08-19T01:40:46;3.85;;;1.40;;
72904;SDS011;61048;52.162;4.516;2022-08-19T01:43:13;3.67;;;1.50;;
72904;SDS011;61048;52.162;4.516;2022-08-19T01:45:40;3.03;;;2.13;;
72904;SDS011;61048;52.162;4.516;2022-08-19T01:48:07;3.00;;;1.40;;
72904;SDS011;61048;52.162;4.516;2022-08-19T01:50:34;2.83;;;2.00;;
72904;SDS011;61048;52.162;4.516;2022-08-19T01:53:02;2.58;;;1.55;;
72904;SDS011;61048;52.162;4.516;2022-08-19T01:55:31;3.78;;;1.55;;
72904;SDS011;61048;52.162;4.516;2022-08-19T01:58:00;2.55;;;1.30;;
72904;SDS011;61048;52.162;4.516;2022-08-19T02:00:31;3.47;;;1.60;;
72904;SDS011;61048;52.162;4.516;2022-08-19T02:02:58;2.60;;;1.50;;
72904;SDS011;61048;52.162;4.516;2022-08-19T02:05:26;4.20;;;1.40;;
72904;SDS011;61048;52.162;4.516;2022-08-19T02:07:54;3.42;;;2.58;;
72904;SDS011;61048;52.162;4.516;2022-08-19T02:10:21;2.92;;;1.60;;
72904;SDS011;61048;52.162;4.516;2022-08-19T02:12:49;3.20;;;2.58;;
72904;SDS011;61048;52.162;4.516;2022-08-19T02:15:17;4.00;;;2.42;;
72904;SDS011;61048;52.162;4.516;2022-08-19T02:17:45;3.20;;;2.08;;
72904;SDS011;61048;52.162;4.516;2022-08-19T02:20:13;3.00;;;1.58;;
72904;SDS011;61048;52.162;4.516;2022-08-19T02:22:40;3.05;;;1.35;;
72904;SDS011;61048;52.162;4.516;2022-08-19T02:25:08;3.53;;;1.77;;
72904;SDS011;61048;52.162;4.516;2022-08-19T02:27:35;2.25;;;1.33;;
72904;SDS011;61048;52.162;4.516;2022-08-19T02:30:03;3.03;;;1.20;;
72904;SDS011;61048;52.162;4.516;2022-08-19T02:32:33;2.78;;;1.77;;
72904;SDS011;61048;52.162;4.516;2022-08-19T02:35:00;2.85;;;2.53;;
72904;SDS011;61048;52.162;4.516;2022-08-19T02:37:27;5.25;;;1.98;;
72904;SDS011;61048;52.162;4.516;2022-08-19T02:40:12;3.22;;;1.50;;
72904;SDS011;61048;52.162;4.516;2022-08-19T02:42:39;3.63;;;1.95;;
72904;SDS011;61048;52.162;4.516;2022-08-19T02:45:08;4.72;;;1.45;;
72904;SDS011;61048;52.162;4.516;2022-08-19T02:47:36;3.72;;;1.85;;
72904;SDS011;61048;52.162;4.516;2022-08-19T02:50:04;3.00;;;1.50;;
72904;SDS011;61048;52.162;4.516;2022-08-19T02:52:32;3.63;;;2.53;;
72904;SDS011;61048;52.162;4.516;2022-08-19T02:54:59;4.15;;;2.10;;
72904;SDS011;61048;52.162;4.516;2022-08-19T02:57:27;3.72;;;1.63;;
72904;SDS011;61048;52.162;4.516;2022-08-19T02:59:54;4.30;;;2.00;;
72904;SDS011;61048;52.162;4.516;2022-08-19T03:02:21;3.10;;;1.70;;
72904;SDS011;61048;52.162;4.516;2022-08-19T03:04:49;3.22;;;1.83;;
72904;SDS011;61048;52.162;4.516;2022-08-19T03:07:17;3.42;;;1.95;;
72904;SDS011;61048;52.162;4.516;2022-08-19T03:09:44;3.67;;;2.42;;
72904;SDS011;61048;52.162;4.516;2022-08-19T03:12:11;3.67;;;1.67;;
72904;SDS011;61048;52.162;4.516;2022-08-19T03:14:38;3.47;;;1.90;;
72904;SDS011;61048;52.162;4.516;2022-08-19T03:17:06;3.03;;;1.70;;
72904;SDS011;61048;52.162;4.516;2022-08-19T03:19:33;3.10;;;2.78;;
72904;SDS011;61048;52.162;4.516;2022-08-19T03:22:01;2.97;;;1.73;;
72904;SDS011;61048;52.162;4.516;2022-08-19T03:24:29;2.75;;;1.80;;
72904;SDS011;61048;52.162;4.516;2022-08-19T03:26:56;4.85;;;2.75;;
72904;SDS011;61048;52.162;4.516;2022-08-19T03:29:24;3.63;;;2.10;;
72904;SDS011;61048;52.162;4.516;2022-08-19T03:31:52;4.88;;;2.67;;
72904;SDS011;61048;52.162;4.516;2022-08-19T03:34:20;4.43;;;2.00;;
72904;SDS011;61048;52.162;4.516;2022-08-19T03:36:51;3.03;;;1.90;;
72904;SDS011;61048;52.162;4.516;2022-08-19T03:39:20;3.75;;;1.73;;
72904;SDS011;61048;52.162;4.516;2022-08-19T03:41:48;4.28;;;2.67;;
72904;SDS011;61048;52.162;4.516;2022-08-19T03:44:17;5.55;;;2.83;;
72904;SDS011;61048;52.162;4.516;2022-08-19T03:46:47;3.00;;;1.90;;
72904;SDS011;61048;52.162;4.516;2022-08-19T03:49:16;4.25;;;2.00;;
72904;SDS011;61048;52.162;4.516;2022-08-19T03:51:44;7.32;;;2.20;;
72904;SDS011;61048;52.162;4.516;2022-08-19T03:54:13;3.88;;;2.80;;
72904;SDS011;61048;52.162;4.516;2022-08-19T03:56:43;3.92;;;2.85;;
72904;SDS011;61048;52.162;4.516;2022-08-19T03:59:12;5.18;;;3.20;;
72904;SDS011;61048;52.162;4.516;2022-08-19T04:01:40;4.00;;;2.45;;
72904;SDS011;61048;52.162;4.516;2022-08-19T04:04:07;3.40;;;2.17;;
72904;SDS011;61048;52.162;4.516;2022-08-19T04:06:35;3.83;;;2.97;;
72904;SDS011;61048;52.162;4.516;2022-08-19T04:09:04;2.97;;;1.80;;
72904;SDS011;61048;52.162;4.516;2022-08-19T04:11:34;4.28;;;2.53;;
72904;SDS011;61048;52.162;4.516;2022-08-19T04:14:07;3.83;;;2.60;;
72904;SDS011;61048;52.162;4.516;2022-08-19T04:16:36;3.65;;;2.33;;
72904;SDS011;61048;52.162;4.516;2022-08-19T04:19:03;4.93;;;3.03;;
72904;SDS011;61048;52.162;4.516;2022-08-19T04:21:32;3.58;;;2.30;;
72904;SDS011;61048;52.162;4.516;2022-08-19T04:23:59;4.78;;;2.50;;
72904;SDS011;61048;52.162;4.516;2022-08-19T04:26:27;3.75;;;1.90;;
72904;SDS011;61048;52.162;4.516;2022-08-19T04:28:57;4.05;;;2.30;;
72904;SDS011;61048;52.162;4.516;2022-08-19T04:31:26;4.53;;;1.95;;
72904;SDS011;61048;52.162;4.516;2022-08-19T04:33:56;3.15;;;2.13;;
72904;SDS011;61048;52.162;4.516;2022-08-19T04:36:27;4.55;;;2.22;;
72904;SDS011;61048;52.162;4.516;2022-08-19T04:38:56;5.63;;;2.28;;
72904;SDS011;61048;52.162;4.516;2022-08-19T04:41:26;4.20;;;2.10;;
72904;SDS011;61048;52.162;4.516;2022-08-19T04:44:10;4.47;;;2.25;;
72904;SDS011;61048;52.162;4.516;2022-08-19T04:46:40;3.60;;;2.25;;
72904;SDS011;61048;52.162;4.516;2022-08-19T04:49:07;4.45;;;2.28;;
72904;SDS011;61048;52.162;4.516;2022-08-19T04:51:34;4.45;;;2.00;;
72904;SDS011;61048;52.162;4.516;2022-08-19T04:54:02;5.03;;;2.38;;
72904;SDS011;61048;52.162;4.516;2022-08-19T04:56:29;3.65;;;2.13;;
72904;SDS011;61048;52.162;4.516;2022-08-19T04:58:56;4.75;;;2.83;;
72904;SDS011;61048;52.162;4.516;2022-08-19T05:01:24;3.83;;;2.08;;
72904;SDS011;61048;52.162;4.516;2022-08-19T05:03:54;3.90;;;2.10;;
72904;SDS011;61048;52.162;4.516;2022-08-19T05:06:22;5.50;;;2.85;;
72904;SDS011;61048;52.162;4.516;2022-08-19T05:08:50;6.35;;;3.35;;
72904;SDS011;61048;52.162;4.516;2022-08-19T05:11:19;5.50;;;3.17;;
72904;SDS011;61048;52.162;4.516;2022-08-19T05:13:51;7.32;;;3.88;;
72904;SDS011;61048;52.162;4.516;2022-08-19T05:16:19;7.72;;;4.50;;
72904;SDS011;61048;52.162;4.516;2022-08-19T05:18:47;11.20;;;4.53;;
72904;SDS011;61048;52.162;4.516;2022-08-19T05:21:33;20.02;;;6.28;;
72904;SDS011;61048;52.162;4.516;2022-08-19T05:24:18;41.35;;;9.45;;
72904;SDS011;61048;52.162;4.516;2022-08-19T05:26:47;52.42;;;11.80;;
72904;SDS011;61048;52.162;4.516;2022-08-19T05:29:16;46.10;;;11.77;;
72904;SDS011;61048;52.162;4.516;2022-08-19T05:31:45;45.85;;;10.50;;
72904;SDS011;61048;52.162;4.516;2022-08-19T05:34:14;39.83;;;9.45;;
72904;SDS011;61048;52.162;4.516;2022-08-19T05:36:43;35.30;;;9.68;;
72904;SDS011;61048;52.162;4.516;2022-08-19T05:39:12;33.75;;;9.75;;
72904;SDS011;61048;52.162;4.516;2022-08-19T05:41:41;35.72;;;9.52;;
72904;SDS011;61048;52.162;4.516;2022-08-19T05:44:08;33.47;;;10.48;;
72904;SDS011;61048;52.162;4.516;2022-08-19T05:46:35;33.72;;;8.07;;
72904;SDS011;61048;52.162;4.516;2022-08-19T05:49:03;29.13;;;7.50;;
72904;SDS011;61048;52.162;4.516;2022-08-19T05:51:31;27.58;;;7.72;;
72904;SDS011;61048;52.162;4.516;2022-08-19T05:54:00;25.00;;;6.80;;
72904;SDS011;61048;52.162;4.516;2022-08-19T05:56:28;31.27;;;7.72;;
72904;SDS011;61048;52.162;4.516;2022-08-19T05:58:55;26.15;;;6.97;;
72904;SDS011;61048;52.162;4.516;2022-08-19T06:01:23;20.40;;;6.95;;
72904;SDS011;61048;52.162;4.516;2022-08-19T06:03:52;19.40;;;6.88;;
72904;SDS011;61048;52.162;4.516;2022-08-19T06:06:19;23.90;;;7.00;;
72904;SDS011;61048;52.162;4.516;2022-08-19T06:08:47;20.88;;;7.50;;
72904;SDS011;61048;52.162;4.516;2022-08-19T06:11:18;22.73;;;7.40;;
72904;SDS011;61048;52.162;4.516;2022-08-19T06:13:47;19.45;;;6.65;;
72904;SDS011;61048;52.162;4.516;2022-08-19T06:16:17;16.40;;;6.03;;
72904;SDS011;61048;52.162;4.516;2022-08-19T06:18:48;16.48;;;6.47;;
72904;SDS011;61048;52.162;4.516;2022-08-19T06:21:18;17.10;;;6.15;;
72904;SDS011;61048;52.162;4.516;2022-08-19T06:23:45;18.27;;;7.60;;
72904;SDS011;61048;52.162;4.516;2022-08-19T06:26:13;14.40;;;6.45;;
72904;SDS011;61048;52.162;4.516;2022-08-19T06:28:42;19.70;;;5.97;;
72904;SDS011;61048;52.162;4.516;2022-08-19T06:31:12;15.27;;;5.97;;
72904;SDS011;61048;52.162;4.516;2022-08-19T06:33:41;16.95;;;6.38;;
72904;SDS011;61048;52.162;4.516;2022-08-19T06:36:08;14.52;;;5.88;;
72904;SDS011;61048;52.162;4.516;2022-08-19T06:38:42;18.65;;;6.55;;
72904;SDS011;61048;52.162;4.516;2022-08-19T06:41:09;28.55;;;9.85;;
72904;SDS011;61048;52.162;4.516;2022-08-19T06:43:36;18.35;;;7.55;;
72904;SDS011;61048;52.162;4.516;2022-08-19T06:46:08;19.13;;;9.02;;
72904;SDS011;61048;52.162;4.516;2022-08-19T06:48:36;29.60;;;10.80;;
72904;SDS011;61048;52.162;4.516;2022-08-19T06:51:04;25.48;;;10.55;;
72904;SDS011;61048;52.162;4.516;2022-08-19T06:53:31;21.38;;;10.88;;
72904;SDS011;61048;52.162;4.516;2022-08-19T06:55:58;25.23;;;11.80;;
72904;SDS011;61048;52.162;4.516;2022-08-19T06:58:27;26.63;;;12.73;;
72904;SDS011;61048;52.162;4.516;2022-08-19T07:00:57;24.08;;;11.80;;
72904;SDS011;61048;52.162;4.516;2022-08-19T07:03:27;19.58;;;10.93;;
72904;SDS011;61048;52.162;4.516;2022-08-19T07:05:56;24.20;;;11.40;;
72904;SDS011;61048;52.162;4.516;2022-08-19T07:08:24;21.10;;;11.07;;
72904;SDS011;61048;52.162;4.516;2022-08-19T07:10:52;25.38;;;11.32;;
72904;SDS011;61048;52.162;4.516;2022-08-19T07:13:19;22.25;;;9.98;;
72904;SDS011;61048;52.162;4.516;2022-08-19T07:15:47;18.60;;;10.23;;
72904;SDS011;61048;52.162;4.516;2022-08-19T07:18:15;17.25;;;9.02;;
72904;SDS011;61048;52.162;4.516;2022-08-19T07:20:43;18.80;;;9.63;;
72904;SDS011;61048;52.162;4.516;2022-08-19T07:23:10;20.23;;;9.48;;
72904;SDS011;61048;52.162;4.516;2022-08-19T07:25:38;21.38;;;9.48;;
72904;SDS011;61048;52.162;4.516;2022-08-19T07:28:05;17.73;;;8.88;;
72904;SDS011;61048;52.162;4.516;2022-08-19T07:30:36;16.77;;;7.30;;
72904;SDS011;61048;52.162;4.516;2022-08-19T07:33:05;19.90;;;7.40;;
72904;SDS011;61048;52.162;4.516;2022-08-19T07:35:32;13.75;;;7.13;;
72904;SDS011;61048;52.162;4.516;2022-08-19T07:38:01;14.27;;;8.35;;
72904;SDS011;61048;52.162;4.516;2022-08-19T07:40:28;13.18;;;6.00;;
72904;SDS011;61048;52.162;4.516;2022-08-19T07:42:56;13.68;;;5.95;;
72904;SDS011;61048;52.162;4.516;2022-08-19T07:45:23;13.60;;;6.28;;
72904;SDS011;61048;52.162;4.516;2022-08-19T07:47:50;15.82;;;6.85;;
72904;SDS011;61048;52.162;4.516;2022-08-19T07:50:18;12.45;;;5.50;;
72904;SDS011;61048;52.162;4.516;2022-08-19T07:52:46;13.20;;;6.82;;
72904;SDS011;61048;52.162;4.516;2022-08-19T07:55:17;13.38;;;6.13;;
72904;SDS011;61048;52.162;4.516;2022-08-19T07:57:45;14.23;;;5.72;;
72904;SDS011;61048;52.162;4.516;2022-08-19T08:00:13;12.70;;;5.25;;
72904;SDS011;61048;52.162;4.516;2022-08-19T08:02:40;13.15;;;4.32;;
72904;SDS011;61048;52.162;4.516;2022-08-19T08:05:08;10.02;;;4.15;;
72904;SDS011;61048;52.162;4.516;2022-08-19T08:07:53;11.35;;;3.95;;
72904;SDS011;61048;52.162;4.516;2022-08-19T08:10:39;7.80;;;4.10;;
72904;SDS011;61048;52.162;4.516;2022-08-19T08:13:06;7.72;;;3.50;;
72904;SDS011;61048;52.162;4.516;2022-08-19T08:15:33;6.15;;;4.07;;
72904;SDS011;61048;52.162;4.516;2022-08-19T08:18:02;7.80;;;4.63;;
72904;SDS011;61048;52.162;4.516;2022-08-19T08:20:29;7.82;;;3.42;;
72904;SDS011;61048;52.162;4.516;2022-08-19T08:22:56;10.65;;;3.80;;
72904;SDS011;61048;52.162;4.516;2022-08-19T08:25:42;8.88;;;3.58;;
72904;SDS011;61048;52.162;4.516;2022-08-19T08:28:09;12.77;;;3.55;;
72904;SDS011;61048;52.162;4.516;2022-08-19T08:30:35;8.95;;;4.53;;
72904;SDS011;61048;52.162;4.516;2022-08-19T08:33:06;9.00;;;3.92;;
72904;SDS011;61048;52.162;4.516;2022-08-19T08:35:33;9.43;;;4.85;;
72904;SDS011;61048;52.162;4.516;2022-08-19T08:38:00;7.63;;;3.60;;
72904;SDS011;61048;52.162;4.516;2022-08-19T08:40:31;7.25;;;4.72;;
72904;SDS011;61048;52.162;4.516;2022-08-19T08:43:07;8.63;;;3.90;;
72904;SDS011;61048;52.162;4.516;2022-08-19T08:45:45;6.28;;;3.70;;
72904;SDS011;61048;52.162;4.516;2022-08-19T08:48:18;7.93;;;3.13;;
72904;SDS011;61048;52.162;4.516;2022-08-19T08:50:50;9.45;;;4.15;;
72904;SDS011;61048;52.162;4.516;2022-08-19T08:53:19;11.20;;;4.03;;
72904;SDS011;61048;52.162;4.516;2022-08-19T08:55:48;9.35;;;3.95;;
72904;SDS011;61048;52.162;4.516;2022-08-19T08:58:19;9.85;;;4.22;;
72904;SDS011;61048;52.162;4.516;2022-08-19T09:00:52;8.65;;;3.92;;
72904;SDS011;61048;52.162;4.516;2022-08-19T09:03:20;8.50;;;4.22;;
72904;SDS011;61048;52.162;4.516;2022-08-19T09:05:52;8.90;;;3.55;;
72904;SDS011;61048;52.162;4.516;2022-08-19T09:08:26;7.93;;;3.03;;
72904;SDS011;61048;52.162;4.516;2022-08-19T09:11:03;8.98;;;3.20;;
72904;SDS011;61048;52.162;4.516;2022-08-19T09:13:37;9.52;;;3.17;;
72904;SDS011;61048;52.162;4.516;2022-08-19T09:16:09;7.93;;;2.95;;
72904;SDS011;61048;52.162;4.516;2022-08-19T09:18:40;10.20;;;3.03;;
72904;SDS011;61048;52.162;4.516;2022-08-19T09:21:09;5.80;;;2.83;;
72904;SDS011;61048;52.162;4.516;2022-08-19T09:23:36;7.78;;;3.45;;
72904;SDS011;61048;52.162;4.516;2022-08-19T09:26:06;7.07;;;2.70;;
72904;SDS011;61048;52.162;4.516;2022-08-19T09:28:35;7.72;;;2.90;;
72904;SDS011;61048;52.162;4.516;2022-08-19T09:31:03;7.28;;;3.58;;
72904;SDS011;61048;52.162;4.516;2022-08-19T09:33:29;7.25;;;2.78;;
72904;SDS011;61048;52.162;4.516;2022-08-19T09:36:04;8.10;;;3.05;;
72904;SDS011;61048;52.162;4.516;2022-08-19T09:38:33;7.80;;;2.80;;
72904;SDS011;61048;52.162;4.516;2022-08-19T09:41:04;7.38;;;3.15;;
72904;SDS011;61048;52.162;4.516;2022-08-19T09:43:31;7.97;;;2.67;;
72904;SDS011;61048;52.162;4.516;2022-08-19T09:46:03;7.72;;;3.20;;
72904;SDS011;61048;52.162;4.516;2022-08-19T09:48:31;8.55;;;2.80;;
72904;SDS011;61048;52.162;4.516;2022-08-19T09:51:02;10.65;;;2.63;;
72904;SDS011;61048;52.162;4.516;2022-08-19T09:53:30;9.65;;;3.55;;
72904;SDS011;61048;52.162;4.516;2022-08-19T09:55:56;6.43;;;2.60;;
72904;SDS011;61048;52.162;4.516;2022-08-19T09:58:23;5.65;;;2.85;;
72904;SDS011;61048;52.162;4.516;2022-08-19T10:00:52;9.43;;;3.05;;
72904;SDS011;61048;52.162;4.516;2022-08-19T10:03:21;7.60;;;3.05;;
72904;SDS011;61048;52.162;4.516;2022-08-19T10:05:48;7.63;;;2.70;;
72904;SDS011;61048;52.162;4.516;2022-08-19T10:08:15;5.93;;;1.90;;
72904;SDS011;61048;52.162;4.516;2022-08-19T10:10:44;5.65;;;2.22;;
72904;SDS011;61048;52.162;4.516;2022-08-19T10:13:12;6.63;;;2.40;;
72904;SDS011;61048;52.162;4.516;2022-08-19T10:15:39;7.10;;;2.13;;
72904;SDS011;61048;52.162;4.516;2022-08-19T10:18:06;11.88;;;2.90;;
72904;SDS011;61048;52.162;4.516;2022-08-19T10:20:35;7.28;;;2.58;;
72904;SDS011;61048;52.162;4.516;2022-08-19T10:23:02;7.90;;;2.47;;
72904;SDS011;61048;52.162;4.516;2022-08-19T10:25:29;8.02;;;2.95;;
72904;SDS011;61048;52.162;4.516;2022-08-19T10:27:58;5.57;;;2.25;;
72904;SDS011;61048;52.162;4.516;2022-08-19T10:30:25;4.85;;;3.00;;
72904;SDS011;61048;52.162;4.516;2022-08-19T10:32:52;9.45;;;2.75;;
72904;SDS011;61048;52.162;4.516;2022-08-19T10:35:19;7.13;;;2.35;;
72904;SDS011;61048;52.162;4.516;2022-08-19T10:37:47;8.07;;;3.05;;
72904;SDS011;61048;52.162;4.516;2022-08-19T10:40:14;7.53;;;2.90;;
72904;SDS011;61048;52.162;4.516;2022-08-19T10:42:41;5.00;;;2.53;;
72904;SDS011;61048;52.162;4.516;2022-08-19T10:45:08;6.05;;;2.50;;
72904;SDS011;61048;52.162;4.516;2022-08-19T10:47:36;12.65;;;2.72;;
72904;SDS011;61048;52.162;4.516;2022-08-19T10:50:03;13.90;;;3.25;;
72904;SDS011;61048;52.162;4.516;2022-08-19T10:52:50;12.02;;;2.85;;
72904;SDS011;61048;52.162;4.516;2022-08-19T10:55:17;11.10;;;3.28;;
72904;SDS011;61048;52.162;4.516;2022-08-19T10:58:03;8.57;;;2.30;;
72904;SDS011;61048;52.162;4.516;2022-08-19T11:00:30;5.70;;;1.85;;
72904;SDS011;61048;52.162;4.516;2022-08-19T11:02:57;6.75;;;1.75;;
72904;SDS011;61048;52.162;4.516;2022-08-19T11:05:24;7.72;;;2.38;;
72904;SDS011;61048;52.162;4.516;2022-08-19T11:07:52;6.43;;;1.98;;
72904;SDS011;61048;52.162;4.516;2022-08-19T11:10:19;11.23;;;2.25;;
72904;SDS011;61048;52.162;4.516;2022-08-19T11:12:46;11.18;;;2.28;;
72904;SDS011;61048;52.162;4.516;2022-08-19T11:15:13;6.32;;;1.58;;
72904;SDS011;61048;52.162;4.516;2022-08-19T11:17:42;6.40;;;1.92;;
72904;SDS011;61048;52.162;4.516;2022-08-19T11:20:10;8.65;;;2.25;;
72904;SDS011;61048;52.162;4.516;2022-08-19T11:22:38;5.97;;;2.05;;
72904;SDS011;61048;52.162;4.516;2022-08-19T11:25:08;3.85;;;1.20;;
72904;SDS011;61048;52.162;4.516;2022-08-19T11:27:37;5.10;;;1.20;;
72904;SDS011;61048;52.162;4.516;2022-08-19T11:30:07;6.57;;;1.30;;
72904;SDS011;61048;52.162;4.516;2022-08-19T11:32:35;3.30;;;1.42;;
72904;SDS011;61048;52.162;4.516;2022-08-19T11:35:02;3.88;;;1.13;;
72904;SDS011;61048;52.162;4.516;2022-08-19T11:37:29;4.07;;;0.82;;
72904;SDS011;61048;52.162;4.516;2022-08-19T11:39:57;3.30;;;1.05;;
72904;SDS011;61048;52.162;4.516;2022-08-19T11:42:26;2.92;;;1.00;;
72904;SDS011;61048;52.162;4.516;2022-08-19T11:45:11;4.05;;;0.95;;
72904;SDS011;61048;52.162;4.516;2022-08-19T11:47:38;4.47;;;0.82;;
72904;SDS011;61048;52.162;4.516;2022-08-19T11:50:05;3.72;;;0.98;;
72904;SDS011;61048;52.162;4.516;2022-08-19T11:52:33;4.97;;;1.23;;
72904;SDS011;61048;52.162;4.516;2022-08-19T11:55:00;3.17;;;1.55;;
72904;SDS011;61048;52.162;4.516;2022-08-19T11:57:28;4.53;;;1.00;;
72904;SDS011;61048;52.162;4.516;2022-08-19T11:59:55;4.25;;;1.15;;
72904;SDS011;61048;52.162;4.516;2022-08-19T12:02:22;3.63;;;1.38;;
72904;SDS011;61048;52.162;4.516;2022-08-19T12:04:49;5.93;;;1.15;;
72904;SDS011;61048;52.162;4.516;2022-08-19T12:07:16;3.47;;;0.80;;
72904;SDS011;61048;52.162;4.516;2022-08-19T12:09:43;5.72;;;0.82;;
72904;SDS011;61048;52.162;4.516;2022-08-19T12:12:10;2.47;;;0.82;;
72904;SDS011;61048;52.162;4.516;2022-08-19T12:14:38;3.65;;;1.17;;
72904;SDS011;61048;52.162;4.516;2022-08-19T12:17:05;3.20;;;0.82;;
72904;SDS011;61048;52.162;4.516;2022-08-19T12:19:33;3.28;;;1.60;;
72904;SDS011;61048;52.162;4.516;2022-08-19T12:22:01;3.00;;;0.95;;
72904;SDS011;61048;52.162;4.516;2022-08-19T12:24:30;4.38;;;1.50;;
72904;SDS011;61048;52.162;4.516;2022-08-19T12:26:57;2.95;;;1.42;;
72904;SDS011;61048;52.162;4.516;2022-08-19T12:29:26;3.65;;;1.27;;
72904;SDS011;61048;52.162;4.516;2022-08-19T12:31:56;5.63;;;2.10;;
72904;SDS011;61048;52.162;4.516;2022-08-19T12:34:27;5.80;;;0.82;;
72904;SDS011;61048;52.162;4.516;2022-08-19T12:36:56;4.03;;;1.77;;
72904;SDS011;61048;52.162;4.516;2022-08-19T12:39:23;5.75;;;1.27;;
72904;SDS011;61048;52.162;4.516;2022-08-19T12:41:50;2.45;;;0.85;;
72904;SDS011;61048;52.162;4.516;2022-08-19T12:44:17;2.53;;;0.80;;
72904;SDS011;61048;52.162;4.516;2022-08-19T12:46:44;3.10;;;0.85;;
72904;SDS011;61048;52.162;4.516;2022-08-19T12:49:12;3.65;;;0.98;;
72904;SDS011;61048;52.162;4.516;2022-08-19T12:51:40;2.10;;;1.00;;
72904;SDS011;61048;52.162;4.516;2022-08-19T12:54:07;3.38;;;1.08;;
72904;SDS011;61048;52.162;4.516;2022-08-19T12:56:34;2.33;;;1.00;;
72904;SDS011;61048;52.162;4.516;2022-08-19T12:59:03;2.40;;;0.90;;
72904;SDS011;61048;52.162;4.516;2022-08-19T13:01:30;3.22;;;1.20;;
72904;SDS011;61048;52.162;4.516;2022-08-19T13:03:57;2.55;;;1.00;;
72904;SDS011;61048;52.162;4.516;2022-08-19T13:06:26;4.05;;;0.90;;
72904;SDS011;61048;52.162;4.516;2022-08-19T13:08:53;2.85;;;1.60;;
72904;SDS011;61048;52.162;4.516;2022-08-19T13:11:20;3.00;;;1.40;;
72904;SDS011;61048;52.162;4.516;2022-08-19T13:13:49;3.30;;;1.27;;
72904;SDS011;61048;52.162;4.516;2022-08-19T13:16:20;2.47;;;1.58;;
72904;SDS011;61048;52.162;4.516;2022-08-19T13:18:47;2.58;;;0.95;;
72904;SDS011;61048;52.162;4.516;2022-08-19T13:21:14;2.60;;;0.88;;
72904;SDS011;61048;52.162;4.516;2022-08-19T13:23:42;2.55;;;0.98;;
72904;SDS011;61048;52.162;4.516;2022-08-19T13:26:10;3.05;;;1.10;;
72904;SDS011;61048;52.162;4.516;2022-08-19T13:28:40;4.13;;;2.00;;
72904;SDS011;61048;52.162;4.516;2022-08-19T13:31:26;3.28;;;1.00;;
72904;SDS011;61048;52.162;4.516;2022-08-19T13:34:13;3.45;;;1.10;;
72904;SDS011;61048;52.162;4.516;2022-08-19T13:36:40;3.45;;;1.90;;
72904;SDS011;61048;52.162;4.516;2022-08-19T13:39:09;2.50;;;1.08;;
72904;SDS011;61048;52.162;4.516;2022-08-19T13:41:36;3.80;;;1.30;;
72904;SDS011;61048;52.162;4.516;2022-08-19T13:44:03;4.35;;;1.30;;
72904;SDS011;61048;52.162;4.516;2022-08-19T13:46:31;3.25;;;1.85;;
72904;SDS011;61048;52.162;4.516;2022-08-19T13:48:58;4.25;;;1.45;;
72904;SDS011;61048;52.162;4.516;2022-08-19T13:51:24;2.85;;;1.30;;
72904;SDS011;61048;52.162;4.516;2022-08-19T13:53:51;4.45;;;1.23;;
72904;SDS011;61048;52.162;4.516;2022-08-19T13:56:21;3.38;;;1.50;;
72904;SDS011;61048;52.162;4.516;2022-08-19T13:58:48;2.78;;;1.70;;
72904;SDS011;61048;52.162;4.516;2022-08-19T14:01:18;1.90;;;0.90;;
72904;SDS011;61048;52.162;4.516;2022-08-19T14:03:47;3.22;;;0.98;;
72904;SDS011;61048;52.162;4.516;2022-08-19T14:06:13;2.33;;;0.88;;
72904;SDS011;61048;52.162;4.516;2022-08-19T14:08:41;2.47;;;1.05;;
72904;SDS011;61048;52.162;4.516;2022-08-19T14:11:08;2.53;;;1.00;;
72904;SDS011;61048;52.162;4.516;2022-08-19T14:13:37;3.45;;;1.00;;
72904;SDS011;61048;52.162;4.516;2022-08-19T14:16:06;3.63;;;1.10;;
72904;SDS011;61048;52.162;4.516;2022-08-19T14:18:33;2.78;;;1.70;;
72904;SDS011;61048;52.162;4.516;2022-08-19T14:21:00;1.77;;;0.85;;
72904;SDS011;61048;52.162;4.516;2022-08-19T14:23:28;3.03;;;1.13;;
72904;SDS011;61048;52.162;4.516;2022-08-19T14:26:02;3.33;;;0.88;;
72904;SDS011;61048;52.162;4.516;2022-08-19T14:28:29;4.22;;;1.90;;
72904;SDS011;61048;52.162;4.516;2022-08-19T14:30:58;2.47;;;1.40;;
72904;SDS011;61048;52.162;4.516;2022-08-19T14:33:25;2.30;;;1.02;;
72904;SDS011;61048;52.162;4.516;2022-08-19T14:35:51;2.80;;;1.23;;
72904;SDS011;61048;52.162;4.516;2022-08-19T14:38:18;2.28;;;1.00;;
72904;SDS011;61048;52.162;4.516;2022-08-19T14:40:47;3.72;;;1.42;;
72904;SDS011;61048;52.162;4.516;2022-08-19T14:43:14;3.88;;;1.20;;
72904;SDS011;61048;52.162;4.516;2022-08-19T14:45:42;3.20;;;1.60;;
72904;SDS011;61048;52.162;4.516;2022-08-19T14:48:11;3.72;;;1.52;;
72904;SDS011;61048;52.162;4.516;2022-08-19T14:50:38;6.07;;;1.17;;
72904;SDS011;61048;52.162;4.516;2022-08-19T14:53:05;4.57;;;1.30;;